sensor_id;sensor_type;location;lat;lon;timestamp;P1;durP1;ratioP1;P2;durP2;ratioP2
55350;SDS011;62194;49.480;10.986;2023-01-19T00:00:04;14.73;;;9.30;;
55350;SDS011;62194;49.480;10.986;2023-01-19T00:00:12;12.93;;;8.70;;
55350;SDS011;62194;49.480;10.986;2023-01-19T00:00:19;13.27;;;8.47;;
55350;SDS011;62194;49.480;10.986;2023-01-19T00:00:25;13.10;;;8.38;;
55350;SDS011;62194;49.480;10.986;2023-01-19T00:00:31;14.67;;;8.20;;
55350;SDS011;62194;49.480;10.986;2023-01-19T00:00:36;14.90;;;8.37;;
55350;SDS011;62194;49.480;10.986;2023-01-19T00:00:41;15.65;;;8.75;;
55350;SDS011;62194;49.480;10.986;2023-01-19T00:00:48;15.13;;;8.83;;
55350;SDS011;62194;49.480;10.986;2023-01-19T00:00:53;14.38;;;8.82;;
55350;SDS011;62194;49.480;10.986;2023-01-19T00:00:58;12.77;;;8.70;;
55350;SDS011;62194;49.480;10.986;2023-01-19T00:01:04;12.93;;;8.80;;
55350;SDS011;62194;49.480;10.986;2023-01-19T00:01:09;12.52;;;8.52;;
55350;SDS011;62194;49.480;10.986;2023-01-19T00:01:15;12.87;;;8.40;;
55350;SDS011;62194;49.480;10.986;2023-01-19T00:01:21;12.85;;;8.25;;
55350;SDS011;62194;49.480;10.986;2023-01-19T00:01:27;12.65;;;8.20;;
55350;SDS011;62194;49.480;10.986;2023-01-19T00:01:32;12.25;;;8.10;;
55350;SDS011;62194;49.480;10.986;2023-01-19T00:01:37;11.83;;;8.17;;
55350;SDS011;62194;49.480;10.986;2023-01-19T00:01:42;12.50;;;8.57;;
55350;SDS011;62194;49.480;10.986;2023-01-19T00:01:48;12.73;;;8.80;;
55350;SDS011;62194;49.480;10.986;2023-01-19T00:01:53;14.35;;;9.40;;
55350;SDS011;62194;49.480;10.986;2023-01-19T00:01:58;15.50;;;9.63;;
55350;SDS011;62194;49.480;10.986;2023-01-19T00:02:04;15.60;;;9.57;;
55350;SDS011;62194;49.480;10.986;2023-01-19T00:02:09;14.90;;;9.27;;
55350;SDS011;62194;49.480;10.986;2023-01-19T00:02:14;14.20;;;8.77;;
55350;SDS011;62194;49.480;10.986;2023-01-19T00:02:20;13.93;;;8.77;;
55350;SDS011;62194;49.480;10.986;2023-01-19T00:02:25;13.32;;;8.60;;
55350;SDS011;62194;49.480;10.986;2023-01-19T00:02:30;13.17;;;8.43;;
55350;SDS011;62194;49.480;10.986;2023-01-19T00:02:36;14.35;;;8.55;;
55350;SDS011;62194;49.480;10.986;2023-01-19T00:02:42;14.67;;;8.90;;
55350;SDS011;62194;49.480;10.986;2023-01-19T00:02:51;14.53;;;8.82;;
55350;SDS011;62194;49.480;10.986;2023-01-19T00:02:56;13.82;;;8.73;;
55350;SDS011;62194;49.480;10.986;2023-01-19T00:03:02;13.55;;;8.82;;
55350;SDS011;62194;49.480;10.986;2023-01-19T00:03:08;13.33;;;8.90;;
55350;SDS011;62194;49.480;10.986;2023-01-19T00:03:19;14.02;;;9.08;;
55350;SDS011;62194;49.480;10.986;2023-01-19T00:03:25;14.23;;;9.27;;
55350;SDS011;62194;49.480;10.986;2023-01-19T00:03:30;14.70;;;9.27;;
55350;SDS011;62194;49.480;10.986;2023-01-19T00:03:36;14.68;;;9.27;;
55350;SDS011;62194;49.480;10.986;2023-01-19T00:03:41;14.23;;;9.13;;
55350;SDS011;62194;49.480;10.986;2023-01-19T00:03:46;14.20;;;9.07;;
55350;SDS011;62194;49.480;10.986;2023-01-19T00:03:52;14.48;;;8.90;;
55350;SDS011;62194;49.480;10.986;2023-01-19T00:03:57;13.93;;;8.93;;
55350;SDS011;62194;49.480;10.986;2023-01-19T00:04:03;13.80;;;8.98;;
55350;SDS011;62194;49.480;10.986;2023-01-19T00:04:08;14.10;;;9.03;;
55350;SDS011;62194;49.480;10.986;2023-01-19T00:04:13;14.17;;;8.83;;
55350;SDS011;62194;49.480;10.986;2023-01-19T00:04:19;13.93;;;8.77;;
55350;SDS011;62194;49.480;10.986;2023-01-19T00:04:24;14.83;;;8.90;;
55350;SDS011;62194;49.480;10.986;2023-01-19T00:04:29;14.98;;;9.10;;
55350;SDS011;62194;49.480;10.986;2023-01-19T00:04:35;14.77;;;9.10;;
55350;SDS011;62194;49.480;10.986;2023-01-19T00:04:40;15.15;;;9.20;;
55350;SDS011;62194;49.480;10.986;2023-01-19T00:04:46;15.77;;;9.40;;
55350;SDS011;62194;49.480;10.986;2023-01-19T00:04:51;15.50;;;9.60;;
55350;SDS011;62194;49.480;10.986;2023-01-19T00:04:56;15.57;;;9.68;;
55350;SDS011;62194;49.480;10.986;2023-01-19T00:05:03;16.13;;;9.63;;
55350;SDS011;62194;49.480;10.986;2023-01-19T00:05:09;17.47;;;9.87;;
55350;SDS011;62194;49.480;10.986;2023-01-19T00:05:15;17.17;;;9.83;;
55350;SDS011;62194;49.480;10.986;2023-01-19T00:05:21;16.63;;;9.80;;
55350;SDS011;62194;49.480;10.986;2023-01-19T00:05:26;16.37;;;9.50;;
55350;SDS011;62194;49.480;10.986;2023-01-19T00:05:31;15.23;;;9.18;;
55350;SDS011;62194;49.480;10.986;2023-01-19T00:05:37;14.17;;;9.03;;
55350;SDS011;62194;49.480;10.986;2023-01-19T00:05:42;13.83;;;8.90;;
55350;SDS011;62194;49.480;10.986;2023-01-19T00:05:48;13.87;;;8.97;;
55350;SDS011;62194;49.480;10.986;2023-01-19T00:05:53;14.02;;;8.77;;
55350;SDS011;62194;49.480;10.986;2023-01-19T00:06:03;15.60;;;9.37;;
55350;SDS011;62194;49.480;10.986;2023-01-19T00:06:11;15.95;;;9.36;;
55350;SDS011;62194;49.480;10.986;2023-01-19T00:06:17;16.57;;;9.53;;
55350;SDS011;62194;49.480;10.986;2023-01-19T00:06:22;15.75;;;9.43;;
55350;SDS011;62194;49.480;10.986;2023-01-19T00:06:27;14.73;;;9.13;;
55350;SDS011;62194;49.480;10.986;2023-01-19T00:06:33;14.27;;;8.97;;
55350;SDS011;62194;49.480;10.986;2023-01-19T00:06:38;14.13;;;9.02;;
55350;SDS011;62194;49.480;10.986;2023-01-19T00:06:44;12.97;;;9.03;;
55350;SDS011;62194;49.480;10.986;2023-01-19T00:06:49;13.57;;;9.02;;
55350;SDS011;62194;49.480;10.986;2023-01-19T00:06:54;14.53;;;9.43;;
55350;SDS011;62194;49.480;10.986;2023-01-19T00:06:59;15.13;;;9.63;;
55350;SDS011;62194;49.480;10.986;2023-01-19T00:07:07;16.16;;;9.74;;
55350;SDS011;62194;49.480;10.986;2023-01-19T00:07:12;16.08;;;9.48;;
55350;SDS011;62194;49.480;10.986;2023-01-19T00:07:17;15.70;;;9.53;;
55350;SDS011;62194;49.480;10.986;2023-01-19T00:07:22;15.20;;;9.40;;
55350;SDS011;62194;49.480;10.986;2023-01-19T00:07:31;15.37;;;9.17;;
55350;SDS011;62194;49.480;10.986;2023-01-19T00:07:36;14.13;;;9.23;;
55350;SDS011;62194;49.480;10.986;2023-01-19T00:07:42;14.53;;;9.37;;
55350;SDS011;62194;49.480;10.986;2023-01-19T00:07:47;14.68;;;9.35;;
55350;SDS011;62194;49.480;10.986;2023-01-19T00:07:52;15.63;;;9.60;;
55350;SDS011;62194;49.480;10.986;2023-01-19T00:07:58;15.52;;;9.80;;
55350;SDS011;62194;49.480;10.986;2023-01-19T00:08:18;15.25;;;9.81;;
55350;SDS011;62194;49.480;10.986;2023-01-19T00:08:23;15.43;;;9.80;;
55350;SDS011;62194;49.480;10.986;2023-01-19T00:08:29;15.32;;;9.77;;
55350;SDS011;62194;49.480;10.986;2023-01-19T00:08:34;15.23;;;9.90;;
55350;SDS011;62194;49.480;10.986;2023-01-19T00:08:39;15.30;;;9.90;;
55350;SDS011;62194;49.480;10.986;2023-01-19T00:08:45;15.32;;;9.90;;
55350;SDS011;62194;49.480;10.986;2023-01-19T00:08:52;14.73;;;9.77;;
55350;SDS011;62194;49.480;10.986;2023-01-19T00:08:57;14.55;;;9.75;;
55350;SDS011;62194;49.480;10.986;2023-01-19T00:09:03;14.53;;;9.60;;
55350;SDS011;62194;49.480;10.986;2023-01-19T00:09:08;14.33;;;9.60;;
55350;SDS011;62194;49.480;10.986;2023-01-19T00:09:14;14.45;;;9.43;;
55350;SDS011;62194;49.480;10.986;2023-01-19T00:09:19;14.83;;;9.40;;
55350;SDS011;62194;49.480;10.986;2023-01-19T00:09:26;14.93;;;9.37;;
55350;SDS011;62194;49.480;10.986;2023-01-19T00:09:32;16.15;;;9.32;;
55350;SDS011;62194;49.480;10.986;2023-01-19T00:09:37;16.50;;;9.30;;
55350;SDS011;62194;49.480;10.986;2023-01-19T00:09:50;16.70;;;9.31;;
55350;SDS011;62194;49.480;10.986;2023-01-19T00:09:55;16.40;;;9.33;;
55350;SDS011;62194;49.480;10.986;2023-01-19T00:10:00;14.77;;;9.32;;
55350;SDS011;62194;49.480;10.986;2023-01-19T00:10:06;14.67;;;9.43;;
55350;SDS011;62194;49.480;10.986;2023-01-19T00:10:12;13.70;;;9.37;;
55350;SDS011;62194;49.480;10.986;2023-01-19T00:10:17;13.90;;;9.32;;
55350;SDS011;62194;49.480;10.986;2023-01-19T00:10:22;14.57;;;9.13;;
55350;SDS011;62194;49.480;10.986;2023-01-19T00:10:28;15.43;;;9.20;;
55350;SDS011;62194;49.480;10.986;2023-01-19T00:10:33;15.67;;;9.03;;
55350;SDS011;62194;49.480;10.986;2023-01-19T00:10:39;15.95;;;8.95;;
55350;SDS011;62194;49.480;10.986;2023-01-19T00:10:47;16.50;;;8.93;;
55350;SDS011;62194;49.480;10.986;2023-01-19T00:10:55;17.23;;;9.01;;
55350;SDS011;62194;49.480;10.986;2023-01-19T00:11:00;16.67;;;9.07;;
55350;SDS011;62194;49.480;10.986;2023-01-19T00:11:06;16.70;;;9.27;;
55350;SDS011;62194;49.480;10.986;2023-01-19T00:11:11;16.17;;;9.43;;
55350;SDS011;62194;49.480;10.986;2023-01-19T00:11:17;15.67;;;9.70;;
55350;SDS011;62194;49.480;10.986;2023-01-19T00:11:23;15.10;;;9.77;;
55350;SDS011;62194;49.480;10.986;2023-01-19T00:11:28;15.38;;;9.75;;
55350;SDS011;62194;49.480;10.986;2023-01-19T00:11:33;15.57;;;9.67;;
55350;SDS011;62194;49.480;10.986;2023-01-19T00:11:39;15.40;;;9.63;;
55350;SDS011;62194;49.480;10.986;2023-01-19T00:11:44;15.07;;;9.52;;
55350;SDS011;62194;49.480;10.986;2023-01-19T00:11:49;14.63;;;9.47;;
55350;SDS011;62194;49.480;10.986;2023-01-19T00:11:55;14.00;;;9.40;;
55350;SDS011;62194;49.480;10.986;2023-01-19T00:12:00;13.43;;;9.57;;
55350;SDS011;62194;49.480;10.986;2023-01-19T00:12:05;13.30;;;9.77;;
55350;SDS011;62194;49.480;10.986;2023-01-19T00:12:11;13.97;;;10.00;;
55350;SDS011;62194;49.480;10.986;2023-01-19T00:12:16;14.60;;;10.05;;
55350;SDS011;62194;49.480;10.986;2023-01-19T00:12:21;15.03;;;9.97;;
55350;SDS011;62194;49.480;10.986;2023-01-19T00:12:27;15.40;;;10.00;;
55350;SDS011;62194;49.480;10.986;2023-01-19T00:12:32;15.43;;;9.77;;
55350;SDS011;62194;49.480;10.986;2023-01-19T00:12:37;14.63;;;9.37;;
55350;SDS011;62194;49.480;10.986;2023-01-19T00:12:43;14.23;;;9.10;;
55350;SDS011;62194;49.480;10.986;2023-01-19T00:12:48;14.20;;;9.00;;
55350;SDS011;62194;49.480;10.986;2023-01-19T00:12:53;13.57;;;8.80;;
55350;SDS011;62194;49.480;10.986;2023-01-19T00:12:59;13.25;;;8.85;;
55350;SDS011;62194;49.480;10.986;2023-01-19T00:13:04;14.70;;;8.97;;
55350;SDS011;62194;49.480;10.986;2023-01-19T00:13:09;14.80;;;9.17;;
55350;SDS011;62194;49.480;10.986;2023-01-19T00:13:15;14.57;;;9.23;;
55350;SDS011;62194;49.480;10.986;2023-01-19T00:13:20;14.90;;;9.33;;
55350;SDS011;62194;49.480;10.986;2023-01-19T00:13:26;15.20;;;9.50;;
55350;SDS011;62194;49.480;10.986;2023-01-19T00:13:32;14.53;;;9.50;;
55350;SDS011;62194;49.480;10.986;2023-01-19T00:13:38;15.13;;;9.50;;
55350;SDS011;62194;49.480;10.986;2023-01-19T00:13:44;17.13;;;9.73;;
55350;SDS011;62194;49.480;10.986;2023-01-19T00:13:55;17.02;;;9.65;;
55350;SDS011;62194;49.480;10.986;2023-01-19T00:14:02;18.02;;;9.68;;
55350;SDS011;62194;49.480;10.986;2023-01-19T00:14:08;17.77;;;9.90;;
55350;SDS011;62194;49.480;10.986;2023-01-19T00:14:13;16.73;;;9.83;;
55350;SDS011;62194;49.480;10.986;2023-01-19T00:14:18;16.67;;;9.95;;
55350;SDS011;62194;49.480;10.986;2023-01-19T00:14:24;17.10;;;10.13;;
55350;SDS011;62194;49.480;10.986;2023-01-19T00:14:29;16.37;;;10.13;;
55350;SDS011;62194;49.480;10.986;2023-01-19T00:14:35;15.40;;;9.80;;
55350;SDS011;62194;49.480;10.986;2023-01-19T00:14:40;15.87;;;9.80;;
55350;SDS011;62194;49.480;10.986;2023-01-19T00:14:45;15.40;;;9.83;;
55350;SDS011;62194;49.480;10.986;2023-01-19T00:14:51;16.00;;;9.90;;
55350;SDS011;62194;49.480;10.986;2023-01-19T00:14:57;16.53;;;9.93;;
55350;SDS011;62194;49.480;10.986;2023-01-19T00:15:02;16.28;;;9.80;;
55350;SDS011;62194;49.480;10.986;2023-01-19T00:15:08;16.70;;;9.73;;
55350;SDS011;62194;49.480;10.986;2023-01-19T00:15:14;17.10;;;9.73;;
55350;SDS011;62194;49.480;10.986;2023-01-19T00:15:19;16.67;;;9.60;;
55350;SDS011;62194;49.480;10.986;2023-01-19T00:15:24;16.17;;;9.40;;
55350;SDS011;62194;49.480;10.986;2023-01-19T00:15:30;16.27;;;9.57;;
55350;SDS011;62194;49.480;10.986;2023-01-19T00:15:35;15.95;;;9.70;;
55350;SDS011;62194;49.480;10.986;2023-01-19T00:15:41;14.97;;;9.67;;
55350;SDS011;62194;49.480;10.986;2023-01-19T00:15:47;15.85;;;9.93;;
55350;SDS011;62194;49.480;10.986;2023-01-19T00:15:52;15.65;;;10.05;;
55350;SDS011;62194;49.480;10.986;2023-01-19T00:15:58;16.00;;;9.97;;
55350;SDS011;62194;49.480;10.986;2023-01-19T00:16:03;16.27;;;9.57;;
55350;SDS011;62194;49.480;10.986;2023-01-19T00:16:09;16.83;;;9.40;;
55350;SDS011;62194;49.480;10.986;2023-01-19T00:16:15;15.90;;;9.45;;
55350;SDS011;62194;49.480;10.986;2023-01-19T00:16:22;15.60;;;9.47;;
55350;SDS011;62194;49.480;10.986;2023-01-19T00:16:27;15.13;;;9.47;;
55350;SDS011;62194;49.480;10.986;2023-01-19T00:16:32;14.88;;;9.77;;
55350;SDS011;62194;49.480;10.986;2023-01-19T00:16:37;15.57;;;10.20;;
55350;SDS011;62194;49.480;10.986;2023-01-19T00:16:43;16.80;;;10.13;;
55350;SDS011;62194;49.480;10.986;2023-01-19T00:16:48;17.52;;;10.20;;
55350;SDS011;62194;49.480;10.986;2023-01-19T00:16:53;17.73;;;10.30;;
55350;SDS011;62194;49.480;10.986;2023-01-19T00:16:59;18.57;;;10.60;;
55350;SDS011;62194;49.480;10.986;2023-01-19T00:17:05;19.16;;;10.50;;
55350;SDS011;62194;49.480;10.986;2023-01-19T00:17:11;17.75;;;10.40;;
55350;SDS011;62194;49.480;10.986;2023-01-19T00:17:16;16.67;;;10.33;;
55350;SDS011;62194;49.480;10.986;2023-01-19T00:17:21;17.33;;;10.17;;
55350;SDS011;62194;49.480;10.986;2023-01-19T00:17:27;16.92;;;9.93;;
55350;SDS011;62194;49.480;10.986;2023-01-19T00:17:32;15.93;;;9.67;;
55350;SDS011;62194;49.480;10.986;2023-01-19T00:17:37;16.20;;;9.80;;
55350;SDS011;62194;49.480;10.986;2023-01-19T00:17:44;16.22;;;9.66;;
55350;SDS011;62194;49.480;10.986;2023-01-19T00:17:50;15.57;;;9.77;;
55350;SDS011;62194;49.480;10.986;2023-01-19T00:17:55;15.03;;;9.83;;
55350;SDS011;62194;49.480;10.986;2023-01-19T00:18:00;15.40;;;10.17;;
55350;SDS011;62194;49.480;10.986;2023-01-19T00:18:06;15.03;;;10.07;;
55350;SDS011;62194;49.480;10.986;2023-01-19T00:18:11;15.45;;;10.23;;
55350;SDS011;62194;49.480;10.986;2023-01-19T00:18:16;16.03;;;10.13;;
55350;SDS011;62194;49.480;10.986;2023-01-19T00:18:21;15.93;;;10.13;;
55350;SDS011;62194;49.480;10.986;2023-01-19T00:18:27;15.77;;;10.07;;
55350;SDS011;62194;49.480;10.986;2023-01-19T00:18:32;16.47;;;10.13;;
55350;SDS011;62194;49.480;10.986;2023-01-19T00:18:38;16.30;;;10.13;;
55350;SDS011;62194;49.480;10.986;2023-01-19T00:18:43;15.73;;;10.07;;
55350;SDS011;62194;49.480;10.986;2023-01-19T00:18:49;15.70;;;9.98;;
55350;SDS011;62194;49.480;10.986;2023-01-19T00:18:56;15.63;;;9.93;;
55350;SDS011;62194;49.480;10.986;2023-01-19T00:19:01;16.03;;;9.80;;
55350;SDS011;62194;49.480;10.986;2023-01-19T00:19:07;15.82;;;9.70;;
55350;SDS011;62194;49.480;10.986;2023-01-19T00:19:12;15.80;;;9.75;;
55350;SDS011;62194;49.480;10.986;2023-01-19T00:19:18;15.80;;;9.77;;
55350;SDS011;62194;49.480;10.986;2023-01-19T00:19:23;15.87;;;9.63;;
55350;SDS011;62194;49.480;10.986;2023-01-19T00:19:28;15.87;;;9.73;;
55350;SDS011;62194;49.480;10.986;2023-01-19T00:19:34;14.90;;;9.65;;
55350;SDS011;62194;49.480;10.986;2023-01-19T00:19:39;15.27;;;9.47;;
55350;SDS011;62194;49.480;10.986;2023-01-19T00:19:44;15.03;;;9.63;;
55350;SDS011;62194;49.480;10.986;2023-01-19T00:19:49;16.27;;;9.70;;
55350;SDS011;62194;49.480;10.986;2023-01-19T00:19:55;16.63;;;10.17;;
55350;SDS011;62194;49.480;10.986;2023-01-19T00:20:00;17.47;;;10.23;;
55350;SDS011;62194;49.480;10.986;2023-01-19T00:20:06;17.70;;;10.48;;
55350;SDS011;62194;49.480;10.986;2023-01-19T00:20:13;16.97;;;10.20;;
55350;SDS011;62194;49.480;10.986;2023-01-19T00:20:18;16.03;;;10.23;;
55350;SDS011;62194;49.480;10.986;2023-01-19T00:20:23;15.95;;;10.20;;
55350;SDS011;62194;49.480;10.986;2023-01-19T00:20:29;16.20;;;10.00;;
55350;SDS011;62194;49.480;10.986;2023-01-19T00:20:39;16.46;;;9.91;;
55350;SDS011;62194;49.480;10.986;2023-01-19T00:20:45;18.40;;;10.30;;
55350;SDS011;62194;49.480;10.986;2023-01-19T00:20:51;19.00;;;10.32;;
55350;SDS011;62194;49.480;10.986;2023-01-19T00:20:56;18.27;;;10.13;;
55350;SDS011;62194;49.480;10.986;2023-01-19T00:21:01;17.40;;;10.13;;
55350;SDS011;62194;49.480;10.986;2023-01-19T00:21:06;16.87;;;9.93;;
55350;SDS011;62194;49.480;10.986;2023-01-19T00:21:12;15.83;;;9.70;;
55350;SDS011;62194;49.480;10.986;2023-01-19T00:21:21;15.17;;;9.53;;
55350;SDS011;62194;49.480;10.986;2023-01-19T00:21:26;15.40;;;9.50;;
55350;SDS011;62194;49.480;10.986;2023-01-19T00:21:31;15.77;;;9.63;;
55350;SDS011;62194;49.480;10.986;2023-01-19T00:21:37;16.00;;;9.67;;
55350;SDS011;62194;49.480;10.986;2023-01-19T00:21:42;16.10;;;9.90;;
55350;SDS011;62194;49.480;10.986;2023-01-19T00:21:47;15.47;;;9.90;;
55350;SDS011;62194;49.480;10.986;2023-01-19T00:21:53;16.17;;;10.37;;
55350;SDS011;62194;49.480;10.986;2023-01-19T00:21:59;16.05;;;10.25;;
55350;SDS011;62194;49.480;10.986;2023-01-19T00:22:04;16.27;;;10.15;;
55350;SDS011;62194;49.480;10.986;2023-01-19T00:22:10;17.23;;;10.20;;
55350;SDS011;62194;49.480;10.986;2023-01-19T00:22:15;17.73;;;10.35;;
55350;SDS011;62194;49.480;10.986;2023-01-19T00:22:20;18.57;;;10.17;;
55350;SDS011;62194;49.480;10.986;2023-01-19T00:22:26;18.10;;;9.87;;
55350;SDS011;62194;49.480;10.986;2023-01-19T00:22:31;18.15;;;9.90;;
55350;SDS011;62194;49.480;10.986;2023-01-19T00:22:36;16.43;;;9.90;;
55350;SDS011;62194;49.480;10.986;2023-01-19T00:22:41;15.33;;;9.60;;
55350;SDS011;62194;49.480;10.986;2023-01-19T00:22:47;15.30;;;9.70;;
55350;SDS011;62194;49.480;10.986;2023-01-19T00:22:54;14.00;;;9.77;;
55350;SDS011;62194;49.480;10.986;2023-01-19T00:23:00;13.67;;;9.73;;
55350;SDS011;62194;49.480;10.986;2023-01-19T00:23:06;14.90;;;9.90;;
55350;SDS011;62194;49.480;10.986;2023-01-19T00:23:13;15.53;;;10.17;;
55350;SDS011;62194;49.480;10.986;2023-01-19T00:23:19;14.92;;;9.82;;
55350;SDS011;62194;49.480;10.986;2023-01-19T00:23:25;15.07;;;9.75;;
55350;SDS011;62194;49.480;10.986;2023-01-19T00:23:30;15.07;;;9.67;;
55350;SDS011;62194;49.480;10.986;2023-01-19T00:23:35;13.63;;;9.37;;
55350;SDS011;62194;49.480;10.986;2023-01-19T00:23:41;13.52;;;9.25;;
55350;SDS011;62194;49.480;10.986;2023-01-19T00:23:47;13.60;;;9.00;;
55350;SDS011;62194;49.480;10.986;2023-01-19T00:23:55;14.27;;;9.12;;
55350;SDS011;62194;49.480;10.986;2023-01-19T00:24:00;14.60;;;9.27;;
55350;SDS011;62194;49.480;10.986;2023-01-19T00:24:05;14.40;;;9.07;;
55350;SDS011;62194;49.480;10.986;2023-01-19T00:24:11;14.15;;;9.18;;
55350;SDS011;62194;49.480;10.986;2023-01-19T00:24:17;14.43;;;9.20;;
55350;SDS011;62194;49.480;10.986;2023-01-19T00:24:23;13.93;;;9.25;;
55350;SDS011;62194;49.480;10.986;2023-01-19T00:24:28;13.90;;;9.30;;
55350;SDS011;62194;49.480;10.986;2023-01-19T00:24:33;14.75;;;9.45;;
55350;SDS011;62194;49.480;10.986;2023-01-19T00:24:39;15.03;;;9.43;;
55350;SDS011;62194;49.480;10.986;2023-01-19T00:24:44;14.63;;;9.40;;
55350;SDS011;62194;49.480;10.986;2023-01-19T00:24:49;14.25;;;9.40;;
55350;SDS011;62194;49.480;10.986;2023-01-19T00:24:55;14.80;;;9.50;;
55350;SDS011;62194;49.480;10.986;2023-01-19T00:25:00;14.90;;;9.40;;
55350;SDS011;62194;49.480;10.986;2023-01-19T00:25:05;14.88;;;9.57;;
55350;SDS011;62194;49.480;10.986;2023-01-19T00:25:11;14.90;;;9.50;;
55350;SDS011;62194;49.480;10.986;2023-01-19T00:25:16;14.85;;;9.48;;
55350;SDS011;62194;49.480;10.986;2023-01-19T00:25:22;14.60;;;9.40;;
55350;SDS011;62194;49.480;10.986;2023-01-19T00:25:27;13.27;;;9.03;;
55350;SDS011;62194;49.480;10.986;2023-01-19T00:25:32;13.30;;;9.07;;
55350;SDS011;62194;49.480;10.986;2023-01-19T00:25:38;14.67;;;9.00;;
55350;SDS011;62194;49.480;10.986;2023-01-19T00:25:46;14.48;;;8.93;;
55350;SDS011;62194;49.480;10.986;2023-01-19T00:25:52;15.87;;;9.30;;
55350;SDS011;62194;49.480;10.986;2023-01-19T00:25:58;16.37;;;9.53;;
55350;SDS011;62194;49.480;10.986;2023-01-19T00:26:03;16.07;;;9.57;;
55350;SDS011;62194;49.480;10.986;2023-01-19T00:26:09;14.38;;;9.32;;
55350;SDS011;62194;49.480;10.986;2023-01-19T00:26:15;14.65;;;9.60;;
55350;SDS011;62194;49.480;10.986;2023-01-19T00:26:21;14.07;;;9.47;;
55350;SDS011;62194;49.480;10.986;2023-01-19T00:26:26;13.47;;;9.30;;
55350;SDS011;62194;49.480;10.986;2023-01-19T00:26:31;13.27;;;9.10;;
55350;SDS011;62194;49.480;10.986;2023-01-19T00:26:37;13.77;;;9.37;;
55350;SDS011;62194;49.480;10.986;2023-01-19T00:26:44;13.95;;;9.38;;
55350;SDS011;62194;49.480;10.986;2023-01-19T00:26:50;14.13;;;9.37;;
55350;SDS011;62194;49.480;10.986;2023-01-19T00:26:55;13.93;;;9.33;;
55350;SDS011;62194;49.480;10.986;2023-01-19T00:27:00;14.10;;;9.45;;
55350;SDS011;62194;49.480;10.986;2023-01-19T00:27:07;13.87;;;9.43;;
55350;SDS011;62194;49.480;10.986;2023-01-19T00:27:13;13.97;;;9.50;;
55350;SDS011;62194;49.480;10.986;2023-01-19T00:27:18;13.10;;;9.27;;
55350;SDS011;62194;49.480;10.986;2023-01-19T00:27:23;13.33;;;9.40;;
55350;SDS011;62194;49.480;10.986;2023-01-19T00:27:29;14.25;;;9.32;;
55350;SDS011;62194;49.480;10.986;2023-01-19T00:27:38;15.70;;;9.57;;
55350;SDS011;62194;49.480;10.986;2023-01-19T00:27:44;16.57;;;9.67;;
55350;SDS011;62194;49.480;10.986;2023-01-19T00:27:53;17.98;;;9.99;;
55350;SDS011;62194;49.480;10.986;2023-01-19T00:27:58;18.10;;;10.17;;
55350;SDS011;62194;49.480;10.986;2023-01-19T00:28:04;17.65;;;10.07;;
55350;SDS011;62194;49.480;10.986;2023-01-19T00:28:13;17.27;;;10.07;;
55350;SDS011;62194;49.480;10.986;2023-01-19T00:28:20;16.80;;;9.88;;
55350;SDS011;62194;49.480;10.986;2023-01-19T00:28:25;16.10;;;9.63;;
55350;SDS011;62194;49.480;10.986;2023-01-19T00:28:30;15.20;;;9.77;;
55350;SDS011;62194;49.480;10.986;2023-01-19T00:28:36;15.13;;;9.93;;
55350;SDS011;62194;49.480;10.986;2023-01-19T00:28:44;14.68;;;10.07;;
55350;SDS011;62194;49.480;10.986;2023-01-19T00:28:49;14.73;;;10.53;;
55350;SDS011;62194;49.480;10.986;2023-01-19T00:28:55;16.40;;;11.13;;
55350;SDS011;62194;49.480;10.986;2023-01-19T00:29:00;16.93;;;10.97;;
55350;SDS011;62194;49.480;10.986;2023-01-19T00:29:05;18.23;;;10.90;;
55350;SDS011;62194;49.480;10.986;2023-01-19T00:29:12;19.07;;;10.87;;
55350;SDS011;62194;49.480;10.986;2023-01-19T00:29:19;18.63;;;10.30;;
55350;SDS011;62194;49.480;10.986;2023-01-19T00:29:25;17.55;;;10.07;;
55350;SDS011;62194;49.480;10.986;2023-01-19T00:29:31;16.95;;;10.13;;
55350;SDS011;62194;49.480;10.986;2023-01-19T00:29:38;14.83;;;9.73;;
55350;SDS011;62194;49.480;10.986;2023-01-19T00:29:43;14.40;;;9.53;;
55350;SDS011;62194;49.480;10.986;2023-01-19T00:29:48;14.60;;;9.53;;
55350;SDS011;62194;49.480;10.986;2023-01-19T00:29:54;14.65;;;9.43;;
55350;SDS011;62194;49.480;10.986;2023-01-19T00:29:59;14.60;;;9.37;;
55350;SDS011;62194;49.480;10.986;2023-01-19T00:30:07;15.05;;;9.40;;
55350;SDS011;62194;49.480;10.986;2023-01-19T00:30:16;17.07;;;9.80;;
55350;SDS011;62194;49.480;10.986;2023-01-19T00:30:21;18.53;;;10.03;;
55350;SDS011;62194;49.480;10.986;2023-01-19T00:30:27;18.85;;;10.13;;
55350;SDS011;62194;49.480;10.986;2023-01-19T00:30:32;19.73;;;10.38;;
55350;SDS011;62194;49.480;10.986;2023-01-19T00:30:38;19.07;;;10.57;;
55350;SDS011;62194;49.480;10.986;2023-01-19T00:30:44;18.52;;;10.55;;
55350;SDS011;62194;49.480;10.986;2023-01-19T00:30:49;17.15;;;10.32;;
55350;SDS011;62194;49.480;10.986;2023-01-19T00:30:56;16.00;;;10.07;;
55350;SDS011;62194;49.480;10.986;2023-01-19T00:31:01;15.05;;;9.80;;
55350;SDS011;62194;49.480;10.986;2023-01-19T00:31:06;14.53;;;9.60;;
55350;SDS011;62194;49.480;10.986;2023-01-19T00:31:12;14.70;;;9.43;;
55350;SDS011;62194;49.480;10.986;2023-01-19T00:31:17;15.75;;;9.65;;
55350;SDS011;62194;49.480;10.986;2023-01-19T00:31:25;15.60;;;9.54;;
55350;SDS011;62194;49.480;10.986;2023-01-19T00:31:33;15.96;;;9.60;;
55350;SDS011;62194;49.480;10.986;2023-01-19T00:31:39;16.77;;;9.70;;
55350;SDS011;62194;49.480;10.986;2023-01-19T00:31:44;16.33;;;9.63;;
55350;SDS011;62194;49.480;10.986;2023-01-19T00:31:49;16.10;;;9.52;;
55350;SDS011;62194;49.480;10.986;2023-01-19T00:31:55;16.73;;;9.63;;
55350;SDS011;62194;49.480;10.986;2023-01-19T00:32:01;16.65;;;9.70;;
55350;SDS011;62194;49.480;10.986;2023-01-19T00:32:09;14.67;;;9.30;;
55350;SDS011;62194;49.480;10.986;2023-01-19T00:32:14;13.73;;;9.40;;
55350;SDS011;62194;49.480;10.986;2023-01-19T00:32:21;12.93;;;9.43;;
55350;SDS011;62194;49.480;10.986;2023-01-19T00:32:27;12.63;;;9.50;;
55350;SDS011;62194;49.480;10.986;2023-01-19T00:32:32;13.43;;;9.73;;
55350;SDS011;62194;49.480;10.986;2023-01-19T00:32:37;14.00;;;9.83;;
55350;SDS011;62194;49.480;10.986;2023-01-19T00:32:42;14.17;;;9.77;;
55350;SDS011;62194;49.480;10.986;2023-01-19T00:32:48;14.48;;;9.75;;
55350;SDS011;62194;49.480;10.986;2023-01-19T00:32:53;14.70;;;9.63;;
55350;SDS011;62194;49.480;10.986;2023-01-19T00:32:59;14.87;;;9.40;;
55350;SDS011;62194;49.480;10.986;2023-01-19T00:33:04;14.50;;;9.30;;
55350;SDS011;62194;49.480;10.986;2023-01-19T00:33:10;14.30;;;9.57;;
55350;SDS011;62194;49.480;10.986;2023-01-19T00:33:19;15.63;;;10.07;;
55350;SDS011;62194;49.480;10.986;2023-01-19T00:33:24;16.00;;;10.13;;
55350;SDS011;62194;49.480;10.986;2023-01-19T00:33:29;16.27;;;10.37;;
55350;SDS011;62194;49.480;10.986;2023-01-19T00:33:35;15.95;;;10.18;;
55350;SDS011;62194;49.480;10.986;2023-01-19T00:33:41;15.53;;;10.00;;
55350;SDS011;62194;49.480;10.986;2023-01-19T00:33:46;15.33;;;9.87;;
55350;SDS011;62194;49.480;10.986;2023-01-19T00:33:53;15.02;;;9.62;;
55350;SDS011;62194;49.480;10.986;2023-01-19T00:33:58;15.03;;;9.70;;